sensor_id;sensor_type;location;lat;lon;timestamp;P1;durP1;ratioP1;P2;durP2;ratioP2
64037;SDS011;54641;50.168;8.492;2022-12-05T00:00:37;17.50;;;9.30;;
64037;SDS011;54641;50.168;8.492;2022-12-05T00:03:08;21.30;;;10.00;;
64037;SDS011;54641;50.168;8.492;2022-12-05T00:05:39;15.20;;;8.80;;
64037;SDS011;54641;50.168;8.492;2022-12-05T00:08:12;14.90;;;8.30;;
64037;SDS011;54641;50.168;8.492;2022-12-05T00:10:43;14.60;;;8.00;;
64037;SDS011;54641;50.168;8.492;2022-12-05T00:13:13;16.00;;;8.70;;
64037;SDS011;54641;50.168;8.492;2022-12-05T00:15:44;19.00;;;9.80;;
64037;SDS011;54641;50.168;8.492;2022-12-05T00:18:14;17.70;;;10.30;;
64037;SDS011;54641;50.168;8.492;2022-12-05T00:20:45;15.50;;;8.70;;
64037;SDS011;54641;50.168;8.492;2022-12-05T00:23:16;16.90;;;8.80;;
64037;SDS011;54641;50.168;8.492;2022-12-05T00:25:46;16.40;;;9.60;;
64037;SDS011;54641;50.168;8.492;2022-12-05T00:28:17;17.40;;;8.80;;
64037;SDS011;54641;50.168;8.492;2022-12-05T00:30:47;16.70;;;9.50;;
64037;SDS011;54641;50.168;8.492;2022-12-05T00:33:18;19.50;;;9.00;;
64037;SDS011;54641;50.168;8.492;2022-12-05T00:35:48;16.30;;;9.30;;
64037;SDS011;54641;50.168;8.492;2022-12-05T00:38:19;13.00;;;7.50;;
64037;SDS011;54641;50.168;8.492;2022-12-05T00:40:49;14.60;;;7.90;;
64037;SDS011;54641;50.168;8.492;2022-12-05T00:43:19;16.30;;;8.30;;
64037;SDS011;54641;50.168;8.492;2022-12-05T00:45:50;13.90;;;7.50;;
64037;SDS011;54641;50.168;8.492;2022-12-05T00:48:20;16.70;;;8.20;;
64037;SDS011;54641;50.168;8.492;2022-12-05T00:50:51;16.90;;;8.20;;
64037;SDS011;54641;50.168;8.492;2022-12-05T00:53:29;16.40;;;8.20;;
64037;SDS011;54641;50.168;8.492;2022-12-05T00:56:02;14.20;;;8.30;;
64037;SDS011;54641;50.168;8.492;2022-12-05T01:01:05;15.60;;;8.10;;
64037;SDS011;54641;50.168;8.492;2022-12-05T01:03:37;15.10;;;8.10;;
64037;SDS011;54641;50.168;8.492;2022-12-05T01:06:08;18.10;;;8.80;;
64037;SDS011;54641;50.168;8.492;2022-12-05T01:08:39;22.30;;;11.10;;
64037;SDS011;54641;50.168;8.492;2022-12-05T01:11:10;20.10;;;10.50;;
64037;SDS011;54641;50.168;8.492;2022-12-05T01:13:44;16.70;;;9.80;;
64037;SDS011;54641;50.168;8.492;2022-12-05T01:16:15;19.20;;;9.60;;
64037;SDS011;54641;50.168;8.492;2022-12-05T01:18:47;20.40;;;10.60;;
64037;SDS011;54641;50.168;8.492;2022-12-05T01:21:18;17.70;;;9.70;;
64037;SDS011;54641;50.168;8.492;2022-12-05T01:23:49;22.20;;;10.80;;
64037;SDS011;54641;50.168;8.492;2022-12-05T01:26:20;20.60;;;10.90;;
64037;SDS011;54641;50.168;8.492;2022-12-05T01:28:51;19.80;;;10.30;;
64037;SDS011;54641;50.168;8.492;2022-12-05T01:31:23;19.40;;;9.90;;
64037;SDS011;54641;50.168;8.492;2022-12-05T01:33:56;20.10;;;10.70;;
64037;SDS011;54641;50.168;8.492;2022-12-05T01:36:27;20.10;;;10.60;;
64037;SDS011;54641;50.168;8.492;2022-12-05T01:38:58;23.80;;;11.30;;
64037;SDS011;54641;50.168;8.492;2022-12-05T01:41:30;23.50;;;10.30;;
64037;SDS011;54641;50.168;8.492;2022-12-05T01:44:03;20.00;;;10.80;;
64037;SDS011;54641;50.168;8.492;2022-12-05T01:46:36;18.40;;;9.60;;
64037;SDS011;54641;50.168;8.492;2022-12-05T01:49:08;18.00;;;9.70;;
64037;SDS011;54641;50.168;8.492;2022-12-05T01:51:41;20.30;;;10.40;;
64037;SDS011;54641;50.168;8.492;2022-12-05T01:54:13;16.80;;;9.70;;
64037;SDS011;54641;50.168;8.492;2022-12-05T01:56:46;19.80;;;9.90;;
64037;SDS011;54641;50.168;8.492;2022-12-05T01:59:18;22.90;;;11.50;;
64037;SDS011;54641;50.168;8.492;2022-12-05T02:01:50;20.80;;;10.90;;
64037;SDS011;54641;50.168;8.492;2022-12-05T02:04:20;22.30;;;11.30;;
64037;SDS011;54641;50.168;8.492;2022-12-05T02:06:51;18.80;;;10.30;;
64037;SDS011;54641;50.168;8.492;2022-12-05T02:09:22;21.30;;;10.30;;
64037;SDS011;54641;50.168;8.492;2022-12-05T02:11:53;19.80;;;9.50;;
64037;SDS011;54641;50.168;8.492;2022-12-05T02:14:27;22.40;;;11.20;;
64037;SDS011;54641;50.168;8.492;2022-12-05T02:17:05;18.60;;;10.70;;
64037;SDS011;54641;50.168;8.492;2022-12-05T02:19:49;18.50;;;9.70;;
64037;SDS011;54641;50.168;8.492;2022-12-05T02:22:42;17.60;;;9.80;;
64037;SDS011;54641;50.168;8.492;2022-12-05T02:25:33;17.80;;;9.80;;
64037;SDS011;54641;50.168;8.492;2022-12-05T02:28:17;21.30;;;10.40;;
64037;SDS011;54641;50.168;8.492;2022-12-05T02:30:58;22.80;;;11.10;;
64037;SDS011;54641;50.168;8.492;2022-12-05T02:33:33;17.50;;;9.30;;
64037;SDS011;54641;50.168;8.492;2022-12-05T02:36:06;17.40;;;10.30;;
64037;SDS011;54641;50.168;8.492;2022-12-05T02:38:39;17.10;;;9.30;;
64037;SDS011;54641;50.168;8.492;2022-12-05T02:41:18;18.40;;;9.20;;
64037;SDS011;54641;50.168;8.492;2022-12-05T02:43:54;20.40;;;9.70;;
64037;SDS011;54641;50.168;8.492;2022-12-05T02:46:26;21.40;;;10.70;;
64037;SDS011;54641;50.168;8.492;2022-12-05T02:48:59;17.50;;;9.50;;
64037;SDS011;54641;50.168;8.492;2022-12-05T02:51:32;18.60;;;9.90;;
64037;SDS011;54641;50.168;8.492;2022-12-05T02:54:07;18.40;;;9.80;;
64037;SDS011;54641;50.168;8.492;2022-12-05T02:56:40;20.50;;;10.00;;
64037;SDS011;54641;50.168;8.492;2022-12-05T02:59:13;20.80;;;10.50;;
64037;SDS011;54641;50.168;8.492;2022-12-05T03:01:49;16.70;;;8.50;;
64037;SDS011;54641;50.168;8.492;2022-12-05T03:04:21;22.70;;;10.50;;
64037;SDS011;54641;50.168;8.492;2022-12-05T03:06:53;20.90;;;10.90;;
64037;SDS011;54641;50.168;8.492;2022-12-05T03:09:27;19.20;;;11.40;;
64037;SDS011;54641;50.168;8.492;2022-12-05T03:12:01;17.30;;;8.80;;
64037;SDS011;54641;50.168;8.492;2022-12-05T03:14:34;16.30;;;8.80;;
64037;SDS011;54641;50.168;8.492;2022-12-05T03:17:09;14.30;;;8.40;;
64037;SDS011;54641;50.168;8.492;2022-12-05T03:19:47;19.20;;;10.20;;
64037;SDS011;54641;50.168;8.492;2022-12-05T03:22:21;19.60;;;10.20;;
64037;SDS011;54641;50.168;8.492;2022-12-05T03:24:57;16.80;;;9.90;;
64037;SDS011;54641;50.168;8.492;2022-12-05T03:27:29;15.10;;;8.60;;
64037;SDS011;54641;50.168;8.492;2022-12-05T03:30:05;17.10;;;9.90;;
64037;SDS011;54641;50.168;8.492;2022-12-05T03:32:44;19.10;;;10.00;;
64037;SDS011;54641;50.168;8.492;2022-12-05T03:35:19;20.80;;;9.70;;
64037;SDS011;54641;50.168;8.492;2022-12-05T03:37:53;18.50;;;9.70;;
64037;SDS011;54641;50.168;8.492;2022-12-05T03:40:28;21.10;;;10.10;;
64037;SDS011;54641;50.168;8.492;2022-12-05T03:43:03;19.20;;;10.90;;
64037;SDS011;54641;50.168;8.492;2022-12-05T03:45:38;19.10;;;9.20;;
64037;SDS011;54641;50.168;8.492;2022-12-05T03:48:15;19.00;;;10.20;;
64037;SDS011;54641;50.168;8.492;2022-12-05T03:50:49;22.60;;;10.90;;
64037;SDS011;54641;50.168;8.492;2022-12-05T03:53:21;21.80;;;11.00;;
64037;SDS011;54641;50.168;8.492;2022-12-05T03:55:56;19.60;;;10.20;;
64037;SDS011;54641;50.168;8.492;2022-12-05T03:58:30;20.90;;;10.70;;
64037;SDS011;54641;50.168;8.492;2022-12-05T04:01:03;18.70;;;10.10;;
64037;SDS011;54641;50.168;8.492;2022-12-05T04:03:35;19.10;;;9.60;;
64037;SDS011;54641;50.168;8.492;2022-12-05T04:06:11;22.60;;;10.80;;
64037;SDS011;54641;50.168;8.492;2022-12-05T04:08:45;23.10;;;10.60;;
64037;SDS011;54641;50.168;8.492;2022-12-05T04:11:18;18.70;;;9.80;;
64037;SDS011;54641;50.168;8.492;2022-12-05T04:13:51;19.40;;;9.80;;
64037;SDS011;54641;50.168;8.492;2022-12-05T04:16:24;17.20;;;9.30;;
64037;SDS011;54641;50.168;8.492;2022-12-05T04:19:15;18.70;;;10.10;;
64037;SDS011;54641;50.168;8.492;2022-12-05T04:21:48;20.60;;;9.80;;
64037;SDS011;54641;50.168;8.492;2022-12-05T04:24:20;18.90;;;10.00;;
64037;SDS011;54641;50.168;8.492;2022-12-05T04:27:11;18.00;;;9.70;;
64037;SDS011;54641;50.168;8.492;2022-12-05T04:29:50;18.80;;;9.00;;
64037;SDS011;54641;50.168;8.492;2022-12-05T04:32:25;19.00;;;9.00;;
64037;SDS011;54641;50.168;8.492;2022-12-05T04:34:57;16.80;;;9.20;;
64037;SDS011;54641;50.168;8.492;2022-12-05T04:37:33;19.00;;;9.60;;
64037;SDS011;54641;50.168;8.492;2022-12-05T04:40:06;18.70;;;10.00;;
64037;SDS011;54641;50.168;8.492;2022-12-05T04:42:39;17.80;;;10.00;;
64037;SDS011;54641;50.168;8.492;2022-12-05T04:45:12;16.80;;;9.40;;
64037;SDS011;54641;50.168;8.492;2022-12-05T04:50:15;16.30;;;7.80;;
64037;SDS011;54641;50.168;8.492;2022-12-05T04:52:46;22.20;;;10.40;;
64037;SDS011;54641;50.168;8.492;2022-12-05T04:55:18;22.00;;;9.90;;
64037;SDS011;54641;50.168;8.492;2022-12-05T04:57:56;17.80;;;9.00;;
64037;SDS011;54641;50.168;8.492;2022-12-05T05:00:31;16.00;;;8.40;;
64037;SDS011;54641;50.168;8.492;2022-12-05T05:03:07;16.50;;;8.50;;
64037;SDS011;54641;50.168;8.492;2022-12-05T05:05:40;16.60;;;8.90;;
64037;SDS011;54641;50.168;8.492;2022-12-05T05:08:17;19.90;;;8.70;;
64037;SDS011;54641;50.168;8.492;2022-12-05T05:10:51;18.10;;;9.50;;
64037;SDS011;54641;50.168;8.492;2022-12-05T05:13:26;14.70;;;7.70;;
64037;SDS011;54641;50.168;8.492;2022-12-05T05:15:57;17.30;;;8.90;;
64037;SDS011;54641;50.168;8.492;2022-12-05T05:18:27;17.30;;;8.60;;
64037;SDS011;54641;50.168;8.492;2022-12-05T05:20:58;17.80;;;7.90;;
64037;SDS011;54641;50.168;8.492;2022-12-05T05:23:28;18.30;;;8.30;;
64037;SDS011;54641;50.168;8.492;2022-12-05T05:25:59;17.90;;;9.00;;
64037;SDS011;54641;50.168;8.492;2022-12-05T05:28:29;17.10;;;8.80;;
64037;SDS011;54641;50.168;8.492;2022-12-05T05:31:01;15.80;;;7.90;;
64037;SDS011;54641;50.168;8.492;2022-12-05T05:33:33;18.00;;;9.60;;
64037;SDS011;54641;50.168;8.492;2022-12-05T05:36:05;21.90;;;9.80;;
64037;SDS011;54641;50.168;8.492;2022-12-05T05:38:37;20.80;;;9.40;;
64037;SDS011;54641;50.168;8.492;2022-12-05T05:41:12;19.40;;;9.80;;
64037;SDS011;54641;50.168;8.492;2022-12-05T05:43:44;17.70;;;9.10;;
64037;SDS011;54641;50.168;8.492;2022-12-05T05:46:15;19.40;;;9.30;;
64037;SDS011;54641;50.168;8.492;2022-12-05T05:48:46;18.80;;;8.80;;
64037;SDS011;54641;50.168;8.492;2022-12-05T05:51:17;16.70;;;8.00;;
64037;SDS011;54641;50.168;8.492;2022-12-05T05:53:49;23.30;;;10.10;;
64037;SDS011;54641;50.168;8.492;2022-12-05T05:56:19;22.10;;;10.30;;
64037;SDS011;54641;50.168;8.492;2022-12-05T05:58:54;22.80;;;10.20;;
64037;SDS011;54641;50.168;8.492;2022-12-05T06:01:26;21.60;;;10.10;;
64037;SDS011;54641;50.168;8.492;2022-12-05T06:03:57;22.90;;;10.90;;
64037;SDS011;54641;50.168;8.492;2022-12-05T06:06:28;21.60;;;10.10;;
64037;SDS011;54641;50.168;8.492;2022-12-05T06:08:59;26.40;;;10.80;;
64037;SDS011;54641;50.168;8.492;2022-12-05T06:11:29;22.60;;;9.90;;
64037;SDS011;54641;50.168;8.492;2022-12-05T06:14:00;25.10;;;11.00;;
64037;SDS011;54641;50.168;8.492;2022-12-05T06:16:30;23.60;;;9.70;;
64037;SDS011;54641;50.168;8.492;2022-12-05T06:19:01;20.30;;;9.30;;
64037;SDS011;54641;50.168;8.492;2022-12-05T06:21:31;17.90;;;9.00;;
64037;SDS011;54641;50.168;8.492;2022-12-05T06:24:02;19.50;;;9.30;;
64037;SDS011;54641;50.168;8.492;2022-12-05T06:26:35;23.10;;;10.40;;
64037;SDS011;54641;50.168;8.492;2022-12-05T06:29:05;25.90;;;11.90;;
64037;SDS011;54641;50.168;8.492;2022-12-05T06:31:36;22.40;;;10.30;;
64037;SDS011;54641;50.168;8.492;2022-12-05T06:34:06;18.30;;;9.30;;
64037;SDS011;54641;50.168;8.492;2022-12-05T06:36:37;22.00;;;8.90;;
64037;SDS011;54641;50.168;8.492;2022-12-05T06:39:07;21.20;;;9.30;;
64037;SDS011;54641;50.168;8.492;2022-12-05T06:41:38;20.60;;;10.00;;
64037;SDS011;54641;50.168;8.492;2022-12-05T06:44:09;25.00;;;10.80;;
64037;SDS011;54641;50.168;8.492;2022-12-05T06:46:39;25.20;;;12.20;;
64037;SDS011;54641;50.168;8.492;2022-12-05T06:49:10;22.00;;;10.10;;
64037;SDS011;54641;50.168;8.492;2022-12-05T06:51:40;22.20;;;10.10;;
64037;SDS011;54641;50.168;8.492;2022-12-05T06:54:11;22.00;;;10.00;;
64037;SDS011;54641;50.168;8.492;2022-12-05T06:56:42;26.20;;;10.80;;
64037;SDS011;54641;50.168;8.492;2022-12-05T06:59:12;21.50;;;10.50;;
64037;SDS011;54641;50.168;8.492;2022-12-05T07:01:42;23.00;;;10.20;;
64037;SDS011;54641;50.168;8.492;2022-12-05T07:04:14;20.00;;;10.00;;
64037;SDS011;54641;50.168;8.492;2022-12-05T07:09:18;16.40;;;7.70;;
64037;SDS011;54641;50.168;8.492;2022-12-05T07:12:10;21.60;;;9.60;;
64037;SDS011;54641;50.168;8.492;2022-12-05T07:14:41;25.30;;;10.80;;
64037;SDS011;54641;50.168;8.492;2022-12-05T07:17:15;23.90;;;11.00;;
64037;SDS011;54641;50.168;8.492;2022-12-05T07:19:47;21.80;;;10.00;;
64037;SDS011;54641;50.168;8.492;2022-12-05T07:22:18;20.20;;;10.40;;
64037;SDS011;54641;50.168;8.492;2022-12-05T07:24:50;22.00;;;10.70;;
64037;SDS011;54641;50.168;8.492;2022-12-05T07:27:21;18.60;;;9.10;;
64037;SDS011;54641;50.168;8.492;2022-12-05T07:29:54;21.30;;;10.50;;
64037;SDS011;54641;50.168;8.492;2022-12-05T07:32:25;21.40;;;9.40;;
64037;SDS011;54641;50.168;8.492;2022-12-05T07:34:58;25.40;;;11.50;;
64037;SDS011;54641;50.168;8.492;2022-12-05T07:37:29;19.60;;;9.70;;
64037;SDS011;54641;50.168;8.492;2022-12-05T07:39:59;20.60;;;9.30;;
64037;SDS011;54641;50.168;8.492;2022-12-05T07:42:30;19.20;;;9.90;;
64037;SDS011;54641;50.168;8.492;2022-12-05T07:45:00;20.80;;;9.90;;
64037;SDS011;54641;50.168;8.492;2022-12-05T07:47:30;20.40;;;9.00;;
64037;SDS011;54641;50.168;8.492;2022-12-05T07:50:01;19.00;;;10.10;;
64037;SDS011;54641;50.168;8.492;2022-12-05T07:52:32;20.60;;;11.00;;
64037;SDS011;54641;50.168;8.492;2022-12-05T07:55:03;21.70;;;9.70;;
64037;SDS011;54641;50.168;8.492;2022-12-05T07:57:34;19.10;;;10.00;;
64037;SDS011;54641;50.168;8.492;2022-12-05T08:00:06;20.30;;;9.20;;
64037;SDS011;54641;50.168;8.492;2022-12-05T08:02:40;22.60;;;10.50;;
64037;SDS011;54641;50.168;8.492;2022-12-05T08:05:11;20.60;;;9.60;;
64037;SDS011;54641;50.168;8.492;2022-12-05T08:07:41;22.00;;;10.70;;
64037;SDS011;54641;50.168;8.492;2022-12-05T08:10:12;20.70;;;10.50;;
64037;SDS011;54641;50.168;8.492;2022-12-05T08:12:43;21.90;;;10.30;;
64037;SDS011;54641;50.168;8.492;2022-12-05T08:15:13;25.40;;;11.50;;
64037;SDS011;54641;50.168;8.492;2022-12-05T08:17:44;22.00;;;11.30;;
64037;SDS011;54641;50.168;8.492;2022-12-05T08:20:14;23.30;;;11.40;;
64037;SDS011;54641;50.168;8.492;2022-12-05T08:22:45;22.40;;;11.10;;
64037;SDS011;54641;50.168;8.492;2022-12-05T08:25:15;24.60;;;12.00;;
64037;SDS011;54641;50.168;8.492;2022-12-05T08:27:46;22.80;;;10.30;;
64037;SDS011;54641;50.168;8.492;2022-12-05T08:30:16;25.20;;;11.20;;
64037;SDS011;54641;50.168;8.492;2022-12-05T08:32:47;25.20;;;11.70;;
64037;SDS011;54641;50.168;8.492;2022-12-05T08:35:18;27.90;;;12.70;;
64037;SDS011;54641;50.168;8.492;2022-12-05T08:37:48;23.70;;;12.00;;
64037;SDS011;54641;50.168;8.492;2022-12-05T08:40:19;26.60;;;12.00;;
64037;SDS011;54641;50.168;8.492;2022-12-05T08:42:50;26.00;;;12.60;;
64037;SDS011;54641;50.168;8.492;2022-12-05T08:45:20;28.20;;;13.10;;
64037;SDS011;54641;50.168;8.492;2022-12-05T08:47:51;24.10;;;12.50;;
64037;SDS011;54641;50.168;8.492;2022-12-05T08:50:21;31.50;;;13.30;;
64037;SDS011;54641;50.168;8.492;2022-12-05T08:52:52;24.50;;;11.70;;
64037;SDS011;54641;50.168;8.492;2022-12-05T08:55:22;24.20;;;10.40;;
64037;SDS011;54641;50.168;8.492;2022-12-05T08:57:53;24.40;;;10.90;;
64037;SDS011;54641;50.168;8.492;2022-12-05T09:00:23;25.00;;;11.70;;
64037;SDS011;54641;50.168;8.492;2022-12-05T09:02:53;29.40;;;13.30;;
64037;SDS011;54641;50.168;8.492;2022-12-05T09:05:24;28.80;;;13.70;;
64037;SDS011;54641;50.168;8.492;2022-12-05T09:07:56;28.80;;;12.30;;
64037;SDS011;54641;50.168;8.492;2022-12-05T09:10:27;28.10;;;13.40;;
64037;SDS011;54641;50.168;8.492;2022-12-05T09:12:57;31.20;;;14.00;;
64037;SDS011;54641;50.168;8.492;2022-12-05T09:15:28;29.20;;;12.90;;
64037;SDS011;54641;50.168;8.492;2022-12-05T09:17:58;30.20;;;13.50;;
64037;SDS011;54641;50.168;8.492;2022-12-05T09:20:29;26.00;;;14.20;;
64037;SDS011;54641;50.168;8.492;2022-12-05T09:22:59;29.10;;;14.10;;
64037;SDS011;54641;50.168;8.492;2022-12-05T09:25:30;28.70;;;13.80;;
64037;SDS011;54641;50.168;8.492;2022-12-05T09:28:00;25.30;;;13.00;;
64037;SDS011;54641;50.168;8.492;2022-12-05T09:30:30;26.10;;;12.10;;
64037;SDS011;54641;50.168;8.492;2022-12-05T09:33:01;28.60;;;13.10;;
64037;SDS011;54641;50.168;8.492;2022-12-05T09:35:31;34.10;;;15.90;;
64037;SDS011;54641;50.168;8.492;2022-12-05T09:38:01;30.30;;;13.70;;
64037;SDS011;54641;50.168;8.492;2022-12-05T09:40:32;26.30;;;13.00;;
64037;SDS011;54641;50.168;8.492;2022-12-05T09:43:03;25.70;;;13.80;;
64037;SDS011;54641;50.168;8.492;2022-12-05T09:45:35;30.20;;;13.80;;
64037;SDS011;54641;50.168;8.492;2022-12-05T09:48:09;27.70;;;12.60;;
64037;SDS011;54641;50.168;8.492;2022-12-05T09:50:43;32.20;;;14.30;;
64037;SDS011;54641;50.168;8.492;2022-12-05T09:53:18;28.70;;;13.90;;
64037;SDS011;54641;50.168;8.492;2022-12-05T09:55:54;34.30;;;15.40;;
64037;SDS011;54641;50.168;8.492;2022-12-05T09:58:30;30.90;;;15.30;;
64037;SDS011;54641;50.168;8.492;2022-12-05T10:01:10;27.90;;;14.50;;
64037;SDS011;54641;50.168;8.492;2022-12-05T10:06:23;31.90;;;15.50;;
64037;SDS011;54641;50.168;8.492;2022-12-05T10:11:30;28.20;;;13.10;;
64037;SDS011;54641;50.168;8.492;2022-12-05T10:14:06;26.40;;;12.80;;
64037;SDS011;54641;50.168;8.492;2022-12-05T10:16:40;27.10;;;12.90;;
64037;SDS011;54641;50.168;8.492;2022-12-05T10:19:15;26.40;;;12.90;;
64037;SDS011;54641;50.168;8.492;2022-12-05T10:21:50;30.60;;;14.50;;
64037;SDS011;54641;50.168;8.492;2022-12-05T10:24:22;30.00;;;15.00;;
64037;SDS011;54641;50.168;8.492;2022-12-05T10:26:57;27.80;;;13.60;;
64037;SDS011;54641;50.168;8.492;2022-12-05T10:29:31;25.70;;;13.60;;
64037;SDS011;54641;50.168;8.492;2022-12-05T10:32:04;25.30;;;13.30;;
64037;SDS011;54641;50.168;8.492;2022-12-05T10:34:39;29.30;;;14.30;;
64037;SDS011;54641;50.168;8.492;2022-12-05T10:37:12;28.80;;;13.00;;
64037;SDS011;54641;50.168;8.492;2022-12-05T10:39:44;32.60;;;14.90;;
64037;SDS011;54641;50.168;8.492;2022-12-05T10:42:16;28.70;;;14.30;;
64037;SDS011;54641;50.168;8.492;2022-12-05T10:44:49;27.50;;;14.30;;
64037;SDS011;54641;50.168;8.492;2022-12-05T10:47:25;27.50;;;13.60;;
64037;SDS011;54641;50.168;8.492;2022-12-05T10:49:56;30.50;;;14.70;;
64037;SDS011;54641;50.168;8.492;2022-12-05T10:52:30;33.70;;;14.20;;
64037;SDS011;54641;50.168;8.492;2022-12-05T10:55:02;34.70;;;14.80;;
64037;SDS011;54641;50.168;8.492;2022-12-05T10:57:34;26.70;;;11.80;;
64037;SDS011;54641;50.168;8.492;2022-12-05T11:00:11;33.50;;;14.50;;
64037;SDS011;54641;50.168;8.492;2022-12-05T11:02:45;30.80;;;12.60;;
64037;SDS011;54641;50.168;8.492;2022-12-05T11:05:17;28.60;;;13.80;;
64037;SDS011;54641;50.168;8.492;2022-12-05T11:07:56;32.10;;;14.50;;
64037;SDS011;54641;50.168;8.492;2022-12-05T11:10:29;29.10;;;13.90;;
64037;SDS011;54641;50.168;8.492;2022-12-05T11:13:03;31.00;;;15.20;;
64037;SDS011;54641;50.168;8.492;2022-12-05T11:15:45;30.80;;;15.00;;
64037;SDS011;54641;50.168;8.492;2022-12-05T11:18:27;26.00;;;12.20;;
64037;SDS011;54641;50.168;8.492;2022-12-05T11:21:08;26.40;;;11.80;;
64037;SDS011;54641;50.168;8.492;2022-12-05T11:23:39;27.70;;;12.00;;
64037;SDS011;54641;50.168;8.492;2022-12-05T11:26:15;32.90;;;13.70;;
64037;SDS011;54641;50.168;8.492;2022-12-05T11:28:47;32.20;;;15.60;;
64037;SDS011;54641;50.168;8.492;2022-12-05T11:31:26;28.40;;;13.80;;
64037;SDS011;54641;50.168;8.492;2022-12-05T11:34:00;29.80;;;14.10;;
64037;SDS011;54641;50.168;8.492;2022-12-05T11:36:36;30.20;;;14.10;;
64037;SDS011;54641;50.168;8.492;2022-12-05T11:39:10;33.70;;;15.30;;
64037;SDS011;54641;50.168;8.492;2022-12-05T11:41:52;27.50;;;13.40;;
64037;SDS011;54641;50.168;8.492;2022-12-05T11:47:31;31.80;;;14.90;;
64037;SDS011;54641;50.168;8.492;2022-12-05T11:50:17;30.40;;;15.00;;
64037;SDS011;54641;50.168;8.492;2022-12-05T11:52:53;27.80;;;12.90;;
64037;SDS011;54641;50.168;8.492;2022-12-05T11:55:30;28.20;;;12.80;;
64037;SDS011;54641;50.168;8.492;2022-12-05T11:58:07;26.10;;;12.50;;
64037;SDS011;54641;50.168;8.492;2022-12-05T12:00:48;29.30;;;14.90;;
64037;SDS011;54641;50.168;8.492;2022-12-05T12:06:24;25.60;;;11.90;;
64037;SDS011;54641;50.168;8.492;2022-12-05T12:09:03;24.40;;;12.80;;
64037;SDS011;54641;50.168;8.492;2022-12-05T12:11:41;27.50;;;12.10;;
64037;SDS011;54641;50.168;8.492;2022-12-05T12:14:16;28.40;;;12.00;;
64037;SDS011;54641;50.168;8.492;2022-12-05T12:16:55;22.20;;;11.60;;
64037;SDS011;54641;50.168;8.492;2022-12-05T12:19:37;20.70;;;11.30;;
64037;SDS011;54641;50.168;8.492;2022-12-05T12:25:21;25.80;;;11.90;;
64037;SDS011;54641;50.168;8.492;2022-12-05T12:27:57;26.70;;;11.70;;
64037;SDS011;54641;50.168;8.492;2022-12-05T12:30:38;26.40;;;12.70;;
64037;SDS011;54641;50.168;8.492;2022-12-05T12:33:14;24.70;;;12.60;;
64037;SDS011;54641;50.168;8.492;2022-12-05T12:35:55;26.40;;;12.30;;
64037;SDS011;54641;50.168;8.492;2022-12-05T12:38:31;26.60;;;12.80;;
64037;SDS011;54641;50.168;8.492;2022-12-05T12:41:20;28.40;;;12.70;;
64037;SDS011;54641;50.168;8.492;2022-12-05T12:44:04;27.80;;;12.90;;
64037;SDS011;54641;50.168;8.492;2022-12-05T12:46:41;25.50;;;12.60;;
64037;SDS011;54641;50.168;8.492;2022-12-05T12:49:19;27.10;;;12.70;;
64037;SDS011;54641;50.168;8.492;2022-12-05T12:51:57;33.10;;;14.40;;
64037;SDS011;54641;50.168;8.492;2022-12-05T12:54:44;26.90;;;13.20;;
64037;SDS011;54641;50.168;8.492;2022-12-05T12:57:41;33.40;;;14.50;;
64037;SDS011;54641;50.168;8.492;2022-12-05T13:00:21;30.30;;;14.80;;
64037;SDS011;54641;50.168;8.492;2022-12-05T13:02:56;28.90;;;13.90;;
64037;SDS011;54641;50.168;8.492;2022-12-05T13:05:31;29.60;;;14.20;;
64037;SDS011;54641;50.168;8.492;2022-12-05T13:08:05;26.40;;;12.70;;
64037;SDS011;54641;50.168;8.492;2022-12-05T13:10:39;28.20;;;13.90;;
64037;SDS011;54641;50.168;8.492;2022-12-05T13:13:12;31.00;;;14.00;;
64037;SDS011;54641;50.168;8.492;2022-12-05T13:15:44;31.30;;;14.50;;
64037;SDS011;54641;50.168;8.492;2022-12-05T13:18:19;26.10;;;14.00;;
64037;SDS011;54641;50.168;8.492;2022-12-05T13:20:52;30.30;;;13.70;;
64037;SDS011;54641;50.168;8.492;2022-12-05T13:23:24;27.10;;;13.50;;
64037;SDS011;54641;50.168;8.492;2022-12-05T13:25:57;27.80;;;14.60;;
64037;SDS011;54641;50.168;8.492;2022-12-05T13:28:28;28.10;;;11.40;;
64037;SDS011;54641;50.168;8.492;2022-12-05T13:31:00;28.90;;;13.40;;
64037;SDS011;54641;50.168;8.492;2022-12-05T13:33:34;28.60;;;12.20;;
64037;SDS011;54641;50.168;8.492;2022-12-05T13:36:11;25.30;;;13.70;;
64037;SDS011;54641;50.168;8.492;2022-12-05T13:39:01;26.10;;;13.00;;
64037;SDS011;54641;50.168;8.492;2022-12-05T13:41:51;24.10;;;12.50;;
64037;SDS011;54641;50.168;8.492;2022-12-05T13:44:42;24.10;;;11.60;;
64037;SDS011;54641;50.168;8.492;2022-12-05T13:50:08;24.70;;;11.80;;
64037;SDS011;54641;50.168;8.492;2022-12-05T13:52:44;23.30;;;11.00;;
64037;SDS011;54641;50.168;8.492;2022-12-05T13:57:52;23.70;;;11.60;;
64037;SDS011;54641;50.168;8.492;2022-12-05T14:00:31;25.00;;;11.20;;
64037;SDS011;54641;50.168;8.492;2022-12-05T14:03:12;25.40;;;11.90;;
64037;SDS011;54641;50.168;8.492;2022-12-05T14:05:47;22.40;;;11.70;;
64037;SDS011;54641;50.168;8.492;2022-12-05T14:11:31;22.10;;;11.50;;
64037;SDS011;54641;50.168;8.492;2022-12-05T14:14:01;24.60;;;11.80;;
64037;SDS011;54641;50.168;8.492;2022-12-05T14:19:15;23.40;;;10.80;;
64037;SDS011;54641;50.168;8.492;2022-12-05T14:22:04;20.60;;;11.00;;
64037;SDS011;54641;50.168;8.492;2022-12-05T14:24:44;20.20;;;10.80;;
64037;SDS011;54641;50.168;8.492;2022-12-05T14:27:22;25.00;;;11.10;;
64037;SDS011;54641;50.168;8.492;2022-12-05T14:30:00;21.40;;;11.10;;
64037;SDS011;54641;50.168;8.492;2022-12-05T14:32:34;22.20;;;11.10;;
64037;SDS011;54641;50.168;8.492;2022-12-05T14:35:10;23.30;;;11.10;;
64037;SDS011;54641;50.168;8.492;2022-12-05T14:37:42;21.90;;;10.60;;
64037;SDS011;54641;50.168;8.492;2022-12-05T14:40:23;17.80;;;9.60;;
64037;SDS011;54641;50.168;8.492;2022-12-05T14:42:57;18.70;;;10.20;;
64037;SDS011;54641;50.168;8.492;2022-12-05T14:45:30;17.80;;;10.30;;
64037;SDS011;54641;50.168;8.492;2022-12-05T14:48:04;19.30;;;10.30;;
64037;SDS011;54641;50.168;8.492;2022-12-05T14:51:01;19.90;;;10.30;;
64037;SDS011;54641;50.168;8.492;2022-12-05T14:54:09;22.20;;;10.80;;
64037;SDS011;54641;50.168;8.492;2022-12-05T14:56:42;19.80;;;10.20;;
64037;SDS011;54641;50.168;8.492;2022-12-05T14:59:19;16.70;;;9.00;;
64037;SDS011;54641;50.168;8.492;2022-12-05T15:01:54;18.20;;;9.20;;
64037;SDS011;54641;50.168;8.492;2022-12-05T15:04:29;17.50;;;9.50;;
64037;SDS011;54641;50.168;8.492;2022-12-05T15:07:04;18.30;;;8.50;;
64037;SDS011;54641;50.168;8.492;2022-12-05T15:09:41;18.40;;;9.90;;
64037;SDS011;54641;50.168;8.492;2022-12-05T15:12:17;16.30;;;8.60;;
64037;SDS011;54641;50.168;8.492;2022-12-05T15:14:55;16.60;;;10.00;;
64037;SDS011;54641;50.168;8.492;2022-12-05T15:17:31;16.10;;;8.90;;
64037;SDS011;54641;50.168;8.492;2022-12-05T15:20:10;18.90;;;9.40;;
64037;SDS011;54641;50.168;8.492;2022-12-05T15:22:44;16.20;;;9.10;;
64037;SDS011;54641;50.168;8.492;2022-12-05T15:25:22;16.20;;;8.70;;
64037;SDS011;54641;50.168;8.492;2022-12-05T15:28:00;16.90;;;8.60;;
64037;SDS011;54641;50.168;8.492;2022-12-05T15:30:33;13.60;;;7.90;;
64037;SDS011;54641;50.168;8.492;2022-12-05T15:33:07;13.80;;;7.40;;
64037;SDS011;54641;50.168;8.492;2022-12-05T15:35:40;14.70;;;8.20;;
64037;SDS011;54641;50.168;8.492;2022-12-05T15:38:18;18.90;;;8.40;;